Time;durP1;ratioP1;P1;durP2;ratioP2;P2;SDS_P1;SDS_P2;PMS_P1;PMS_P2;Temp;Humidity;BMP_temperature;BMP_pressure;BME280_temperature;BME280_humidity;BME280_pressure;Samples;Min_cycle;Max_cycle;Signal;HPM_P1;HPM_P2
2022/08/27 00:01:45;;;;;;;122.00;32.63;;;;;;;23.40;70.99;101080.56;4912156;28;122479;-81
2022/08/27 00:04:13;;;;;;;123.70;31.80;;;;;;;23.48;70.77;101101.09;4914077;28;125014;-81
2022/08/27 00:06:47;;;;;;;122.45;30.52;;;;;;;23.41;70.70;101093.28;4933598;28;122814;-82
2022/08/27 00:09:13;;;;;;;105.38;28.52;;;;;;;23.30;70.36;101079.44;4958153;28;122327;-81
2022/08/27 00:11:39;;;;;;;104.25;27.67;;;;;;;23.38;70.98;101094.34;4930510;28;122384;-81
2022/08/27 00:14:07;;;;;;;91.28;25.50;;;;;;;23.37;70.55;101089.28;4928704;28;122237;-81
2022/08/27 00:16:33;;;;;;;81.43;24.25;;;;;;;23.31;70.37;101083.00;4911755;28;124633;-80
2022/08/27 00:18:58;;;;;;;94.15;26.23;;;;;;;23.32;70.87;101078.91;4947852;28;122294;-81
2022/08/27 00:21:24;;;;;;;92.53;26.00;;;;;;;23.36;70.91;101082.16;4934980;28;122791;-80
2022/08/27 00:23:50;;;;;;;97.53;26.63;;;;;;;23.39;70.83;101079.06;4928663;28;124887;-80
2022/08/27 00:26:16;;;;;;;97.32;26.77;;;;;;;23.41;71.14;101084.88;4947944;28;122496;-80
2022/08/27 00:28:42;;;;;;;98.00;26.80;;;;;;;23.34;71.16;101070.75;4912961;28;125035;-80
2022/08/27 00:31:08;;;;;;;109.13;29.42;;;;;;;23.40;71.03;101083.38;4943282;28;122364;-81
2022/08/27 00:33:34;;;;;;;104.93;29.90;;;;;;;23.38;71.16;101085.94;4928643;28;122660;-80
2022/08/27 00:36:00;;;;;;;92.80;27.48;;;;;;;23.26;70.44;101081.81;4928673;28;124452;-81
2022/08/27 00:38:26;;;;;;;93.95;27.85;;;;;;;23.21;70.56;101080.59;4943128;28;125832;-80
2022/08/27 00:40:52;;;;;;;87.78;26.80;;;;;;;23.22;70.19;101087.72;4928201;28;124312;-80
2022/08/27 00:43:30;;;;;;;87.18;26.65;;;;;;;23.17;70.80;101088.50;4936285;28;122501;-81
2022/08/27 00:46:09;;;;;;;80.00;25.70;;;;;;;23.21;71.02;101097.38;4929307;28;124435;-81
2022/08/27 00:48:35;;;;;;;81.77;24.27;;;;;;;23.14;70.78;101081.19;4918503;28;122938;-81
2022/08/27 00:51:02;;;;;;;82.53;22.90;;;;;;;23.17;70.24;101091.31;4943866;28;122574;-80
2022/08/27 00:53:32;;;;;;;62.33;19.97;;;;;;;23.09;69.80;101093.22;4927454;28;122521;-81
2022/08/27 00:56:15;;;;;;;54.55;18.70;;;;;;;23.03;69.64;101089.72;4928553;28;122857;-80
2022/08/27 00:58:44;;;;;;;57.97;18.90;;;;;;;23.00;69.49;101099.19;4926999;28;123744;-81
2022/08/27 01:01:12;;;;;;;48.65;18.27;;;;;;;22.95;69.52;101097.22;4923738;28;122526;-80
2022/08/27 01:03:39;;;;;;;53.60;17.65;;;;;;;22.92;70.08;101103.84;4930290;28;124494;-81
2022/08/27 01:06:10;;;;;;;47.70;17.13;;;;;;;22.85;69.15;101101.66;4943476;28;125912;-82
2022/08/27 01:08:41;;;;;;;54.97;18.58;;;;;;;22.81;69.90;101106.75;4946675;28;122409;-81
2022/08/27 01:11:10;;;;;;;58.85;18.95;;;;;;;22.77;70.15;101103.50;4943266;28;122451;-81
2022/08/27 01:13:42;;;;;;;53.63;18.80;;;;;;;22.76;70.50;101107.56;4926548;28;122263;-81
2022/08/27 01:16:10;;;;;;;55.72;18.90;;;;;;;22.74;69.95;101107.34;4922962;28;122874;-81
2022/08/27 01:18:37;;;;;;;59.70;18.92;;;;;;;22.81;69.86;101106.75;4951071;28;122935;-81
2022/08/27 01:21:21;;;;;;;54.60;18.20;;;;;;;22.83;69.35;101110.56;4929012;28;123796;-80
2022/08/27 01:24:31;;;;;;;60.40;19.65;;;;;;;22.82;69.94;101116.69;4943693;28;122709;-81
2022/08/27 01:26:58;;;;;;;60.03;20.30;;;;;;;22.79;70.03;101109.31;4943704;28;122881;-81
2022/08/27 01:29:25;;;;;;;59.88;21.17;;;;;;;22.79;70.83;101109.31;4927618;28;122915;-81
2022/08/27 01:31:55;;;;;;;56.30;20.20;;;;;;;22.83;70.87;101101.41;4929066;28;122670;-81
2022/08/27 01:34:24;;;;;;;60.35;20.77;;;;;;;22.89;70.39;101111.25;4927747;28;123154;-81
2022/08/27 01:36:51;;;;;;;56.03;20.13;;;;;;;22.90;69.76;101112.00;4927046;28;123463;-81
2022/08/27 01:39:19;;;;;;;55.27;19.10;;;;;;;22.85;70.26;101110.03;4942503;28;122970;-81
2022/08/27 01:41:45;;;;;;;52.92;18.75;;;;;;;22.85;70.20;101105.19;4927291;28;122359;-81
2022/08/27 01:44:11;;;;;;;39.43;17.07;;;;;;;22.83;69.76;101107.00;4927487;28;122215;-81
2022/08/27 01:46:37;;;;;;;49.35;18.42;;;;;;;22.76;69.65;101101.97;4909868;28;126011;-81
2022/08/27 01:49:03;;;;;;;43.63;16.38;;;;;;;22.74;69.14;101112.94;4939244;28;122338;-80
2022/08/27 01:51:29;;;;;;;45.80;16.98;;;;;;;22.65;69.32;101106.41;4944185;28;122726;-81
2022/08/27 01:53:57;;;;;;;40.03;16.73;;;;;;;22.65;69.93;101112.00;4930493;28;125237;-81
2022/08/27 01:56:24;;;;;;;38.53;16.27;;;;;;;22.65;70.10;101109.19;4943453;28;122429;-81
2022/08/27 01:58:49;;;;;;;36.08;15.98;;;;;;;22.71;69.63;101111.16;4947916;28;124715;-82
2022/08/27 02:01:28;;;;;;;30.52;13.15;;;;;;;22.61;69.28;101114.31;4932669;28;122623;-81
2022/08/27 02:03:54;;;;;;;39.63;15.88;;;;;;;22.62;69.73;101106.69;4911629;28;124737;-81
2022/08/27 02:06:25;;;;;;;31.97;13.60;;;;;;;22.55;69.66;101112.88;4925576;28;123012;-81
2022/08/27 02:08:54;;;;;;;27.95;11.52;;;;;;;22.47;68.84;101104.28;4943461;28;122298;-81
2022/08/27 02:11:19;;;;;;;30.40;13.20;;;;;;;22.51;69.68;101110.38;4943379;28;123149;-81
2022/08/27 02:13:45;;;;;;;25.23;10.60;;;;;;;22.40;68.69;101104.88;4944872;28;122797;-82
2022/08/27 02:16:27;;;;;;;33.43;13.83;;;;;;;22.45;69.69;101109.66;4931166;28;123171;-81
2022/08/27 02:18:59;;;;;;;34.30;13.77;;;;;;;22.46;70.44;101110.41;4952890;28;124284;-82
2022/08/27 02:21:34;;;;;;;35.00;13.52;;;;;;;22.52;69.45;101102.75;4924538;28;122526;-81
2022/08/27 02:24:11;;;;;;;35.00;13.90;;;;;;;22.47;69.60;101097.94;4910000;28;125289;-81
2022/08/27 02:26:36;;;;;;;31.45;13.10;;;;;;;22.48;70.11;101100.25;4940912;28;123932;-81
2022/08/27 02:29:03;;;;;;;25.90;11.43;;;;;;;22.48;69.68;101099.50;4927726;28;122444;-81
2022/08/27 02:31:28;;;;;;;29.05;10.73;;;;;;;22.36;68.87;101094.00;4910413;28;125012;-82
2022/08/27 02:33:54;;;;;;;26.80;11.03;;;;;;;22.34;69.23;101096.56;4942379;28;123175;-81
2022/08/27 02:36:20;;;;;;;32.40;12.43;;;;;;;22.33;69.31;101099.88;4926937;28;121904;-81
2022/08/27 02:38:45;;;;;;;28.37;12.13;;;;;;;22.30;68.89;101109.31;4930753;28;122124;-82
2022/08/27 02:41:23;;;;;;;29.55;12.07;;;;;;;22.28;69.48;101103.50;4943786;28;122162;-81
2022/08/27 02:43:51;;;;;;;29.20;12.30;;;;;;;22.19;69.60;101096.19;4945740;28;122237;-81
2022/08/27 02:46:17;;;;;;;28.30;11.57;;;;;;;22.27;68.85;101113.91;4929268;28;123816;-81
2022/08/27 02:48:43;;;;;;;31.17;12.87;;;;;;;22.20;69.04;101103.28;4945328;28;122389;-82
2022/08/27 02:51:09;;;;;;;29.75;12.52;;;;;;;22.27;70.16;101107.56;4945858;28;122266;-81
2022/08/27 02:53:36;;;;;;;22.88;11.05;;;;;;;22.30;69.59;101109.31;4927133;28;125181;-82
2022/08/27 02:56:04;;;;;;;28.23;11.60;;;;;;;22.20;69.42;101096.94;4924334;28;123176;-82
2022/08/27 02:58:36;;;;;;;26.80;11.40;;;;;;;22.19;69.20;101103.81;4946906;28;122955;-82
2022/08/27 03:01:17;;;;;;;25.95;12.18;;;;;;;22.11;69.18;101100.06;4925929;28;122277;-82
2022/08/27 03:03:43;;;;;;;28.77;12.02;;;;;;;22.16;69.25;101104.84;4927182;28;124040;-81
2022/08/27 03:06:08;;;;;;;31.02;12.20;;;;;;;22.18;68.99;101105.09;4925409;28;124842;-82
2022/08/27 03:08:34;;;;;;;30.67;12.20;;;;;;;22.17;69.52;101101.53;4943291;28;124012;-81
2022/08/27 03:10:59;;;;;;;30.00;11.60;;;;;;;22.20;69.33;101105.31;4912544;28;125568;-82
2022/08/27 03:13:26;;;;;;;29.17;10.97;;;;;;;22.17;68.76;101106.38;4934813;28;122516;-82
2022/08/27 03:15:52;;;;;;;31.65;12.50;;;;;;;22.13;68.70;101108.69;4945579;28;123272;-82
2022/08/27 03:18:18;;;;;;;31.20;13.53;;;;;;;22.11;69.85;101098.03;4928200;28;124749;-82
2022/08/27 03:20:48;;;;;;;34.50;14.32;;;;;;;22.14;69.85;101094.19;4925259;28;125475;-82
2022/08/27 03:23:15;;;;;;;33.70;13.90;;;;;;;22.16;69.34;101099.25;4930527;28;124986;-82
2022/08/27 03:25:52;;;;;;;29.58;12.68;;;;;;;22.14;68.89;101099.03;4929378;28;125210;-82
2022/08/27 03:28:27;;;;;;;34.38;13.43;;;;;;;22.13;69.62;101111.50;4923568;28;123574;-82
2022/08/27 03:31:00;;;;;;;31.65;12.52;;;;;;;22.10;69.27;101104.91;4940114;28;123484;-82
2022/08/27 03:33:35;;;;;;;30.40;12.50;;;;;;;22.14;70.03;101102.59;4922021;28;123702;-82
2022/08/27 03:36:03;;;;;;;31.80;11.90;;;;;;;22.18;69.61;101100.25;4944777;28;122605;-82
2022/08/27 03:38:32;;;;;;;34.77;13.90;;;;;;;22.22;70.04;101094.38;4928301;28;125022;-82
2022/08/27 03:40:58;;;;;;;33.75;12.85;;;;;;;22.19;70.17;101096.19;4945274;28;122376;-83
2022/08/27 03:43:27;;;;;;;36.10;12.43;;;;;;;22.25;69.18;101094.13;4949045;28;122370;-82
2022/08/27 03:45:53;;;;;;;31.95;11.63;;;;;;;22.23;68.84;101085.47;4944135;28;125557;-82
2022/08/27 03:48:38;;;;;;;30.65;12.10;;;;;;;22.20;69.84;101088.56;4943049;28;122409;-82
2022/08/27 03:51:12;;;;;;;30.88;11.77;;;;;;;22.18;69.27;101080.69;4926333;28;122492;-83
2022/08/27 03:53:43;;;;;;;35.45;11.23;;;;;;;22.18;69.21;101091.13;4928988;28;123514;-82
2022/08/27 03:56:09;;;;;;;30.65;11.35;;;;;;;22.19;69.06;101106.59;4944398;28;122072;-82
2022/08/27 03:58:37;;;;;;;33.87;10.93;;;;;;;22.18;69.50;101096.69;4946443;28;122355;-82
2022/08/27 04:01:04;;;;;;;30.23;9.48;;;;;;;22.20;68.68;101094.91;4943729;28;122785;-82
2022/08/27 04:03:31;;;;;;;29.08;10.23;;;;;;;22.19;69.60;101089.84;4927763;28;123537;-82
2022/08/27 04:05:58;;;;;;;29.23;9.97;;;;;;;22.17;68.79;101089.59;4930269;28;124856;-82
2022/08/27 04:08:25;;;;;;;26.23;9.45;;;;;;;22.13;68.98;101087.09;4931079;28;122538;-82
2022/08/27 04:11:09;;;;;;;22.67;8.83;;;;;;;22.14;69.04;101094.19;4916887;28;123721;-82
2022/08/27 04:13:44;;;;;;;22.07;9.00;;;;;;;22.17;68.42;101106.38;4944975;28;125434;-82
2022/08/27 04:16:10;;;;;;;22.25;9.18;;;;;;;22.20;69.43;101102.53;4912476;28;122632;-82
2022/08/27 04:18:41;;;;;;;22.05;8.77;;;;;;;22.13;68.96;101086.34;4954690;28;122740;-82
2022/08/27 04:21:14;;;;;;;21.75;8.20;;;;;;;22.21;68.77;101102.00;4928010;28;123909;-82
2022/08/27 04:23:43;;;;;;;23.73;8.50;;;;;;;22.18;68.93;101096.69;4929409;28;122193;-82
2022/08/27 04:26:10;;;;;;;23.30;7.78;;;;;;;22.19;68.45;101106.59;4944353;28;122137;-82
2022/08/27 04:28:39;;;;;;;26.00;6.85;;;;;;;22.17;67.78;101114.75;4917998;28;125490;-82
2022/08/27 04:31:06;;;;;;;23.42;6.82;;;;;;;22.07;68.03;101102.41;4912108;28;124522;-82
2022/08/27 04:36:27;;;;;;;20.30;6.95;;;;;;;22.02;68.33;101103.94;4942651;28;122535;-82
2022/08/27 04:39:02;;;;;;;19.23;6.68;;;;;;;22.02;67.90;101110.28;4944699;28;122375;-82
2022/08/27 04:41:32;;;;;;;20.77;7.25;;;;;;;22.06;68.04;101110.03;4907175;28;123349;-82
2022/08/27 04:44:05;;;;;;;18.75;6.68;;;;;;;22.08;68.08;101113.06;4910130;28;122309;-83
2022/08/27 04:46:35;;;;;;;24.55;6.28;;;;;;;22.00;68.31;101109.25;4944373;28;122500;-82
2022/08/27 04:49:03;;;;;;;16.55;5.82;;;;;;;22.04;67.86;101112.59;4927586;28;124902;-82
2022/08/27 04:51:30;;;;;;;17.85;6.05;;;;;;;22.08;68.08;101124.22;4947880;28;122781;-82
2022/08/27 04:53:56;;;;;;;19.48;6.03;;;;;;;22.02;67.98;101117.91;4927065;28;124486;-82
2022/08/27 04:56:25;;;;;;;17.53;5.93;;;;;;;21.99;67.79;101119.69;4924290;28;122178;-82
2022/08/27 04:58:51;;;;;;;16.08;5.72;;;;;;;21.97;68.41;101122.22;4931438;28;122337;-82
2022/08/27 05:01:23;;;;;;;20.90;6.10;;;;;;;21.97;68.15;101122.22;4923913;28;125993;-82
2022/08/27 05:03:49;;;;;;;22.92;6.18;;;;;;;22.00;67.91;101123.22;4942798;28;121925;-82
2022/08/27 05:06:16;;;;;;;19.60;5.95;;;;;;;21.99;68.42;101121.72;4936941;28;122767;-83
2022/08/27 05:08:48;;;;;;;18.30;6.10;;;;;;;21.97;68.12;101124.28;4908403;28;123758;-83
2022/08/27 05:11:19;;;;;;;19.88;6.22;;;;;;;21.96;68.90;101120.72;4932422;28;121903;-83
2022/08/27 05:13:46;;;;;;;19.75;5.75;;;;;;;21.95;68.03;101121.25;4944305;28;125377;-83
2022/08/27 05:16:20;;;;;;;15.70;5.80;;;;;;;21.94;68.40;101117.69;4909668;28;122396;-83
2022/08/27 05:18:47;;;;;;;18.23;6.30;;;;;;;21.91;68.90;101115.19;4937920;28;122714;-83
2022/08/27 05:21:23;;;;;;;18.30;5.80;;;;;;;21.90;67.35;101117.22;4945258;28;122621;-83
2022/08/27 05:23:49;;;;;;;18.27;5.78;;;;;;;21.91;67.83;101113.16;4944270;28;122443;-83
2022/08/27 05:26:15;;;;;;;15.63;5.00;;;;;;;21.87;66.60;101114.72;4942379;28;121803;-83
2022/08/27 05:28:41;;;;;;;16.38;5.07;;;;;;;21.77;66.76;101119.88;4915851;28;124980;-83
2022/08/27 05:31:09;;;;;;;16.20;5.30;;;;;;;21.68;68.25;101109.00;4944079;28;122247;-83
2022/08/27 05:33:37;;;;;;;17.13;5.10;;;;;;;21.63;66.55;101104.22;4947898;28;122926;-83
2022/08/27 05:36:04;;;;;;;20.95;5.25;;;;;;;21.65;67.49;101115.63;4926586;28;122636;-83
2022/08/27 05:38:31;;;;;;;13.65;4.55;;;;;;;21.69;67.75;101116.84;4911679;28;123980;-82
2022/08/27 05:41:09;;;;;;;16.20;5.03;;;;;;;21.73;68.06;101111.00;4944209;28;122521;-83
2022/08/27 05:43:40;;;;;;;18.55;4.72;;;;;;;21.73;66.74;101119.34;4943763;28;124202;-83
2022/08/27 05:46:09;;;;;;;17.23;4.90;;;;;;;21.62;67.09;101103.47;4911034;28;124249;-82
2022/08/27 05:48:36;;;;;;;14.83;4.70;;;;;;;21.62;66.02;101125.03;4943760;28;122382;-82
2022/08/27 05:51:21;;;;;;;20.00;5.47;;;;;;;21.56;66.63;101116.69;4932028;28;124248;-82
2022/08/27 05:53:47;;;;;;;17.38;4.97;;;;;;;21.54;66.39;101115.69;4932923;28;122688;-82
2022/08/27 05:56:16;;;;;;;18.90;5.30;;;;;;;21.45;66.72;101108.38;4941448;28;124788;-82
2022/08/27 06:01:43;;;;;;;17.27;4.50;;;;;;;21.35;65.55;101112.75;4927156;28;123491;-82
2022/08/27 06:04:13;;;;;;;11.85;4.05;;;;;;;21.36;65.60;101123.41;4911312;28;121946;-82
2022/08/27 06:06:41;;;;;;;13.82;4.22;;;;;;;21.26;67.11;101108.22;4924780;28;123831;-82
2022/08/27 06:09:13;;;;;;;16.10;4.90;;;;;;;21.44;68.00;101112.44;4943555;28;124926;-82
2022/08/27 06:12:05;;;;;;;18.13;4.50;;;;;;;21.48;67.36;101106.59;4931717;28;124078;-81
2022/08/27 06:14:35;;;;;;;16.35;4.40;;;;;;;21.49;66.63;101102.50;4927189;28;122985;-81
2022/08/27 06:17:18;;;;;;;17.23;4.20;;;;;;;21.51;65.35;101111.88;4943198;28;124411;-82
2022/08/27 06:19:44;;;;;;;17.20;4.88;;;;;;;21.41;66.08;101100.28;4961491;28;121906;-82
2022/08/27 06:22:13;;;;;;;19.90;5.20;;;;;;;21.35;66.25;101105.13;4943326;28;122180;-82
2022/08/27 06:24:46;;;;;;;12.95;4.55;;;;;;;21.35;65.44;101115.53;4943233;28;121805;-81
2022/08/27 06:27:17;;;;;;;18.00;4.80;;;;;;;21.31;65.98;101103.91;4927297;28;122263;-81
2022/08/27 06:29:44;;;;;;;17.03;4.43;;;;;;;21.28;65.93;101116.06;4926531;28;124665;-82
2022/08/27 06:32:10;;;;;;;13.43;4.35;;;;;;;21.24;65.81;101116.34;4910511;28;121636;-81
2022/08/27 06:34:40;;;;;;;16.05;3.78;;;;;;;21.19;65.49;101119.88;4924834;28;124632;-81
2022/08/27 06:37:11;;;;;;;17.20;4.07;;;;;;;21.30;66.59;101131.03;4927067;28;123712;-81
2022/08/27 06:39:38;;;;;;;15.90;4.43;;;;;;;21.31;66.50;101120.66;4923094;28;122045;-82
2022/08/27 06:42:11;;;;;;;14.70;4.25;;;;;;;21.52;67.01;101134.97;4930440;28;122563;-82
2022/08/27 06:44:40;;;;;;;13.60;3.90;;;;;;;21.55;66.30;101137.50;4925919;28;122325;-81
2022/08/27 06:47:12;;;;;;;14.35;3.90;;;;;;;21.62;66.19;101130.63;4926410;28;121750;-81
2022/08/27 06:49:41;;;;;;;17.05;3.75;;;;;;;21.68;64.19;101136.91;4923190;28;122604;-82
2022/08/27 06:52:36;;;;;;;16.75;4.00;;;;;;;21.66;65.50;101134.63;4952838;28;122477;-81
2022/08/27 06:55:03;;;;;;;13.63;3.95;;;;;;;21.73;66.23;101138.91;4939967;28;123874;-82
2022/08/27 06:57:28;;;;;;;17.25;3.50;;;;;;;21.76;63.29;101140.66;4927199;28;122166;-82
2022/08/27 06:59:54;;;;;;;19.58;4.38;;;;;;;21.73;65.59;101139.66;4926444;28;122230;-81
2022/08/27 07:02:20;;;;;;;17.33;3.72;;;;;;;21.85;65.77;101139.59;4904868;28;123994;-82
2022/08/27 07:04:46;;;;;;;15.80;4.13;;;;;;;21.84;65.38;101132.50;4935170;28;122142;-82
2022/08/27 07:07:31;;;;;;;15.07;3.53;;;;;;;21.81;63.93;101131.50;4937630;28;122647;-82
2022/08/27 07:09:57;;;;;;;13.00;3.35;;;;;;;21.78;62.68;101129.75;4926365;28;125841;-81
2022/08/27 07:12:24;;;;;;;11.57;3.50;;;;;;;21.80;64.89;101138.38;4925661;28;121929;-81
2022/08/27 07:14:50;;;;;;;13.88;4.07;;;;;;;21.87;65.36;101135.00;4926468;28;125291;-81
2022/08/27 07:17:16;;;;;;;13.02;3.80;;;;;;;21.95;65.09;101133.16;4942993;28;122827;-81
2022/08/27 07:19:42;;;;;;;17.73;4.00;;;;;;;22.01;65.57;101138.72;4950583;28;122283;-81
2022/08/27 07:22:08;;;;;;;11.80;3.77;;;;;;;22.11;65.07;101144.78;4941286;28;124165;-81
2022/08/27 07:24:34;;;;;;;14.37;3.80;;;;;;;22.13;64.04;101142.22;4946797;28;122465;-82
2022/08/27 07:27:00;;;;;;;13.52;3.80;;;;;;;22.15;64.93;101139.66;4925543;28;124107;-80
2022/08/27 07:29:25;;;;;;;19.30;4.13;;;;;;;22.21;65.68;101137.56;4943018;28;123696;-81
2022/08/27 07:31:51;;;;;;;13.48;3.72;;;;;;;22.25;63.76;101143.66;4930449;28;122279;-81
2022/08/27 07:34:17;;;;;;;16.63;3.70;;;;;;;22.24;63.64;101142.91;4946469;28;122663;-81
2022/08/27 07:36:42;;;;;;;16.33;3.50;;;;;;;22.22;62.47;101141.88;4927752;28;124918;-81
2022/08/27 07:39:08;;;;;;;15.98;3.70;;;;;;;22.16;62.20;101147.50;4945915;28;122121;-81
2022/08/27 07:44:23;;;;;;;14.35;3.60;;;;;;;22.18;64.14;101142.16;4929584;28;124121;-81
2022/08/27 07:44:24;;;;;;;16.77;3.92;;;;;;;22.35;65.09;101150.41;4925461;28;123524;-80
2022/08/27 07:46:54;;;;;;;14.15;3.50;;;;;;;22.49;64.88;101160.47;4930626;28;122274;-81
2022/08/27 07:49:22;;;;;;;14.80;3.85;;;;;;;22.61;64.74;101141.53;4926903;28;125720;-81
2022/08/27 07:51:49;;;;;;;13.90;3.43;;;;;;;22.79;64.99;101156.84;4933790;28;122506;-81
2022/08/27 07:54:15;;;;;;;19.38;3.70;;;;;;;22.87;63.58;101161.38;4936880;28;122978;-81
2022/08/27 07:56:41;;;;;;;15.07;3.75;;;;;;;22.94;63.02;101160.78;4920057;28;124916;-81
2022/08/27 07:59:18;;;;;;;14.45;3.63;;;;;;;23.00;62.90;101160.72;4929194;28;122516;-82
2022/08/27 08:01:45;;;;;;;13.70;3.53;;;;;;;23.09;62.27;101160.34;4940839;28;122442;-81
2022/08/27 08:04:10;;;;;;;18.53;3.70;;;;;;;23.12;62.05;101150.16;4902141;28;124894;-81
2022/08/27 08:06:37;;;;;;;15.18;3.58;;;;;;;23.24;60.87;101168.34;4943295;28;122270;-81
2022/08/27 08:09:05;;;;;;;16.20;3.67;;;;;;;23.22;60.07;101163.25;4946695;28;123111;-81
2022/08/27 08:11:32;;;;;;;15.95;3.42;;;;;;;23.33;60.78;101181.19;4923999;28;122369;-82
2022/08/27 08:13:59;;;;;;;14.98;3.28;;;;;;;23.41;59.17;101182.09;4934467;28;123492;-82
2022/08/27 08:16:24;;;;;;;15.98;3.33;;;;;;;23.43;60.27;101180.31;4927895;28;124006;-81
2022/08/27 08:18:53;;;;;;;16.10;3.33;;;;;;;23.42;58.00;101169.63;4955625;28;122439;-82
2022/08/27 08:21:19;;;;;;;16.23;3.22;;;;;;;23.52;59.92;101176.38;4929660;28;122911;-82
2022/08/27 08:23:47;;;;;;;16.65;3.65;;;;;;;23.68;61.22;101178.22;4928418;28;126341;-82
2022/08/27 08:26:39;;;;;;;12.48;3.08;;;;;;;23.93;59.77;101178.88;4944995;28;122648;-82
2022/08/27 08:29:05;;;;;;;18.23;2.87;;;;;;;24.03;59.70;101177.19;4910141;28;122890;-81
2022/08/27 08:31:31;;;;;;;14.40;3.10;;;;;;;24.08;58.29;101176.34;4928853;28;125607;-79
2022/08/27 08:33:57;;;;;;;14.75;3.10;;;;;;;24.17;59.68;101178.00;4927708;28;122204;-79
2022/08/27 08:36:28;;;;;;;12.00;3.28;;;;;;;24.22;58.25;101165.94;4928411;28;122368;-82
2022/08/27 08:38:54;;;;;;;11.87;2.93;;;;;;;24.28;56.77;101175.03;4912311;28;122620;-80
2022/08/27 08:41:38;;;;;;;11.88;3.03;;;;;;;24.27;57.98;101167.13;4944217;28;122744;-79
2022/08/27 08:44:31;;;;;;;14.77;3.38;;;;;;;24.30;57.52;101168.91;4927565;28;123979;-80
2022/08/27 08:47:32;;;;;;;14.77;3.17;;;;;;;24.29;55.69;101175.78;4928061;28;123785;-78
2022/08/27 08:50:03;;;;;;;15.33;3.07;;;;;;;24.27;55.83;101179.09;4911334;28;122997;-80
2022/08/27 08:52:47;;;;;;;13.32;3.22;;;;;;;24.26;56.96;101180.41;4948897;28;122774;-79
2022/08/27 08:55:54;;;;;;;15.53;3.30;;;;;;;24.27;56.89;101183.97;4937415;28;122655;-80
2022/08/27 08:58:46;;;;;;;15.02;3.40;;;;;;;24.26;56.66;101183.19;4938251;28;126002;-82
2022/08/27 09:01:19;;;;;;;13.90;3.40;;;;;;;24.25;55.70;101184.50;4928222;28;122602;-82
2022/08/27 09:04:01;;;;;;;11.80;2.85;;;;;;;24.24;57.12;101171.00;4941604;28;122023;-79
2022/08/27 09:06:45;;;;;;;13.63;3.17;;;;;;;24.31;55.83;101190.03;4927454;28;122366;-79
2022/08/27 09:09:55;;;;;;;10.43;2.95;;;;;;;24.40;58.57;101196.00;4926443;28;122550;-82
2022/08/27 09:12:29;;;;;;;13.10;2.90;;;;;;;24.42;57.32;101178.66;4942171;28;123042;-82
2022/08/27 09:15:01;;;;;;;11.43;2.93;;;;;;;24.55;56.50;101195.47;4922800;28;122858;-81
2022/08/27 09:17:27;;;;;;;14.00;3.23;;;;;;;24.59;55.53;101195.16;4933976;28;122423;-82
2022/08/27 09:19:52;;;;;;;15.17;3.20;;;;;;;24.57;55.91;101192.91;4921580;28;122367;-79
2022/08/27 09:22:41;;;;;;;15.37;3.13;;;;;;;24.47;54.87;101184.16;4936562;28;122872;-79
2022/08/27 09:25:20;;;;;;;10.45;3.22;;;;;;;24.52;54.75;101188.16;4934608;28;123181;-80
2022/08/27 09:27:47;;;;;;;9.33;2.70;;;;;;;24.53;56.83;101180.50;4918094;28;123462;-79
2022/08/27 09:30:22;;;;;;;13.90;3.10;;;;;;;24.67;57.76;101184.84;4934322;28;123042;-80
2022/08/27 09:33:00;;;;;;;14.52;3.20;;;;;;;24.74;56.54;101189.81;4902063;28;125104;-79
2022/08/27 09:35:38;;;;;;;14.73;2.92;;;;;;;24.74;55.13;101182.13;4900906;28;123813;-79
2022/08/27 09:38:04;;;;;;;12.95;2.97;;;;;;;24.72;55.06;101175.56;4918225;28;122383;-79
2022/08/27 09:40:40;;;;;;;12.93;3.13;;;;;;;24.75;55.10;101189.25;4920967;28;122881;-81
2022/08/27 09:43:15;;;;;;;11.37;2.93;;;;;;;24.74;54.17;101184.19;4935197;28;122595;-80
2022/08/27 09:45:58;;;;;;;13.55;3.70;;;;;;;24.73;56.60;101191.09;4917929;28;124704;-79
2022/08/27 09:48:25;;;;;;;10.85;2.90;;;;;;;24.78;55.94;101195.84;4917329;28;125949;-79
2022/08/27 09:50:55;;;;;;;11.50;2.90;;;;;;;24.83;55.04;101191.41;4900530;28;122583;-79
2022/08/27 09:53:57;;;;;;;11.27;3.17;;;;;;;24.88;55.92;101185.72;4894718;28;122719;-79
2022/08/27 09:56:26;;;;;;;13.88;3.30;;;;;;;24.95;56.14;101182.25;4917539;28;124131;-79
2022/08/27 09:58:58;;;;;;;11.43;2.90;;;;;;;25.02;55.59;101180.88;4932443;28;122651;-79
2022/08/27 10:01:27;;;;;;;12.85;2.90;;;;;;;25.07;55.10;101186.38;4901456;28;124338;-78
2022/08/27 10:04:10;;;;;;;13.88;3.33;;;;;;;25.06;54.28;101178.50;4921878;28;123736;-79
2022/08/27 10:06:43;;;;;;;11.68;2.95;;;;;;;25.08;54.66;101171.06;4917553;28;122998;-79
2022/08/27 10:09:33;;;;;;;10.15;2.83;;;;;;;25.08;54.32;101171.06;4900809;28;125425;-80
2022/08/27 10:12:21;;;;;;;13.40;3.10;;;;;;;25.08;53.68;101173.13;4886025;28;122743;-80
2022/08/27 10:14:53;;;;;;;15.07;3.55;;;;;;;24.96;52.80;101164.13;4932703;28;122676;-80
2022/08/27 10:17:58;;;;;;;12.93;2.92;;;;;;;25.00;56.01;101181.44;4917580;28;122798;-79
2022/08/27 10:20:46;;;;;;;12.05;3.13;;;;;;;25.01;54.57;101182.19;4901494;28;122712;-80
2022/08/27 10:23:34;;;;;;;12.85;2.92;;;;;;;25.03;53.26;101169.13;4933070;28;122725;-79
2022/08/27 10:26:50;;;;;;;10.82;2.40;;;;;;;25.04;53.12;101169.88;4900852;28;125639;-80
2022/08/27 10:29:33;;;;;;;14.47;2.97;;;;;;;25.01;53.34;101168.91;4904868;28;122568;-79
2022/08/27 10:32:05;;;;;;;16.02;3.15;;;;;;;25.01;54.91;101148.50;4916308;28;122641;-79
2022/08/27 10:34:56;;;;;;;14.07;2.92;;;;;;;25.07;54.39;101149.91;4900495;28;122265;-80
2022/08/27 10:37:47;;;;;;;11.48;2.97;;;;;;;25.16;53.94;101154.31;4900809;28;124798;-80
2022/08/27 10:40:22;;;;;;;9.63;2.60;;;;;;;25.12;54.90;101153.16;4918054;28;122901;-79
2022/08/27 10:43:26;;;;;;;10.10;2.60;;;;;;;25.17;53.14;101157.88;4900952;28;124794;-79
2022/08/27 10:46:14;;;;;;;9.50;3.05;;;;;;;25.15;51.91;101152.06;4917658;28;123341;-80
2022/08/27 10:48:56;;;;;;;11.63;3.10;;;;;;;25.09;51.66;101146.56;4884741;28;125079;-80
2022/08/27 10:52:01;;;;;;;10.45;2.88;;;;;;;25.09;51.34;101158.56;4915040;28;122998;-80
2022/08/27 10:54:34;;;;;;;10.80;2.60;;;;;;;25.14;54.44;101156.16;4901921;28;123629;-79
2022/08/27 10:57:14;;;;;;;11.75;3.00;;;;;;;25.21;53.29;101153.44;4917642;28;123331;-79
2022/08/27 11:00:00;;;;;;;9.30;2.58;;;;;;;25.32;52.74;101150.44;4917258;28;124705;-79
2022/08/27 11:02:36;;;;;;;9.88;2.85;;;;;;;25.35;53.95;101142.97;4901953;28;124380;-79
2022/08/27 11:05:30;;;;;;;9.65;2.90;;;;;;;25.39;51.97;101141.34;4903008;28;122552;-79
2022/08/27 11:08:02;;;;;;;9.07;2.70;;;;;;;25.46;51.71;101151.13;4920081;28;123545;-79
2022/08/27 11:10:35;;;;;;;11.35;2.78;;;;;;;25.47;52.20;101147.03;4913947;28;126805;-79
2022/08/27 11:13:22;;;;;;;10.10;2.33;;;;;;;25.55;53.93;101149.91;4904780;28;122575;-79
2022/08/27 11:15:53;;;;;;;12.73;3.17;;;;;;;25.49;52.13;101127.56;4919687;28;124530;-79
2022/08/27 11:18:33;;;;;;;8.02;2.63;;;;;;;25.59;51.96;101145.50;4922822;28;126655;-79
2022/08/27 11:21:28;;;;;;;7.75;2.58;;;;;;;25.66;52.83;101142.00;4920870;28;123116;-79
2022/08/27 11:24:27;;;;;;;12.98;3.05;;;;;;;25.75;51.79;101145.66;4893896;28;125025;-79
2022/08/27 11:26:58;;;;;;;11.80;2.80;;;;;;;25.75;52.83;101132.38;4906943;28;123126;-80
2022/08/27 11:29:35;;;;;;;9.30;2.67;;;;;;;25.82;51.81;101136.59;4936706;28;123959;-79
2022/08/27 11:32:40;;;;;;;11.52;2.97;;;;;;;25.82;50.03;101131.72;4918431;28;126446;-79
2022/08/27 11:35:15;;;;;;;11.07;2.95;;;;;;;25.81;49.22;101132.25;4880794;28;123996;-80
2022/08/27 11:38:06;;;;;;;11.05;2.50;;;;;;;25.72;50.47;101118.66;4914030;28;122549;-79